Andi Jemma Airport


Codes: WAWM/MXB
Name: Andi Jemma Airport
City: Masamba-Celebes Island
Country: Indonesia
Elevation: 164 ft.

Photos at Andi Jemma Airport


   Photos courtesy of SpottingLog. You can add your own sightings and photos by signing up for a free trial today.



No photos found.

Weather at Andi Jemma Airport


Time (UTC)DescriptionTempratureWindCloud coverageVisibilityPressureHumidity
17-Jun-2024 06:00Light Rain28°C0 mph, SE87%8885m1010hPa85%
17-Jun-2024 09:00Moderate Rain27°C0 mph, S87%1776m1010hPa89%
17-Jun-2024 12:00Light Rain25°C2 mph, NW76%10000m1012hPa95%
17-Jun-2024 15:00Light Rain23°C2 mph, NW7%10000m1013hPa99%
17-Jun-2024 18:00Few Clouds22°C2 mph, NW17%10000m1012hPa98%
17-Jun-2024 21:00Scattered Clouds22°C2 mph, NW39%10000m1012hPa97%
18-Jun-2024 00:00Scattered Clouds25°C0 mph, SW46%10000m1013hPa87%
18-Jun-2024 03:00Light Rain28°C4 mph, SE59%10000m1012hPa75%
18-Jun-2024 06:00Light Rain26°C2 mph, SE70%7971m1010hPa92%
18-Jun-2024 09:00Light Rain25°C0 mph, N91%3200m1010hPa97%
18-Jun-2024 12:00Light Rain23°C2 mph, NW90%6502m1012hPa98%
18-Jun-2024 15:00Light Rain22°C2 mph, N100%7811m1013hPa98%
18-Jun-2024 18:00Light Rain22°C2 mph, NW100%10000m1012hPa96%
18-Jun-2024 21:00Overcast Clouds23°C2 mph, NW98%10000m1012hPa94%
19-Jun-2024 00:00Overcast Clouds25°C0 mph, SE97%10000m1013hPa84%
19-Jun-2024 03:00Light Rain29°C4 mph, SE56%10000m1011hPa64%
19-Jun-2024 06:00Light Rain29°C4 mph, SE67%9070m1009hPa68%
19-Jun-2024 09:00Light Rain24°C2 mph, S94%5372m1010hPa94%
19-Jun-2024 12:00Light Rain22°C2 mph, S89%8047m1012hPa98%
19-Jun-2024 15:00Light Rain22°C4 mph, NW41%10000m1012hPa97%
19-Jun-2024 18:00Broken Clouds21°C4 mph, NW70%10000m1011hPa96%
19-Jun-2024 21:00Overcast Clouds21°C2 mph, NW93%10000m1011hPa95%
20-Jun-2024 00:00Overcast Clouds24°C0 mph, SW96%10000m1013hPa86%
20-Jun-2024 03:00Light Rain26°C0 mph, SE100%10000m1012hPa78%
20-Jun-2024 06:00Light Rain28°C4 mph, SE100%10000m1010hPa65%
20-Jun-2024 09:00Light Rain24°C2 mph, S99%8251m1010hPa94%
20-Jun-2024 12:00Light Rain22°C2 mph, NW99%8399m1013hPa97%
20-Jun-2024 15:00Overcast Clouds22°C2 mph, NW99%10000m1013hPa96%
20-Jun-2024 18:00Overcast Clouds21°C4 mph, N92%10000m1011hPa95%
20-Jun-2024 21:00Overcast Clouds21°C2 mph, NW92%10000m1011hPa93%
21-Jun-2024 00:00Broken Clouds25°C2 mph, W82%10000m1013hPa76%
21-Jun-2024 03:00Scattered Clouds30°C4 mph, S41%10000m1011hPa58%
21-Jun-2024 06:00Light Rain30°C4 mph, SE60%10000m1008hPa57%
21-Jun-2024 09:00Light Rain26°C0 mph, SW60%10000m1010hPa90%
21-Jun-2024 12:00Light Rain23°C4 mph, N37%10000m1012hPa97%
21-Jun-2024 15:00Light Rain22°C4 mph, N27%10000m1013hPa97%
21-Jun-2024 18:00Scattered Clouds22°C4 mph, NW46%10000m1012hPa95%
21-Jun-2024 21:00Few Clouds21°C4 mph, NW23%10000m1012hPa94%
22-Jun-2024 00:00Broken Clouds26°C0 mph, SW63%10000m1013hPa75%
22-Jun-2024 03:00Overcast Clouds30°C4 mph, S100%10000m1011hPa57%